This is the latest recevied weather packets stored in our database for station/object N4AN. If no packets are shown the sender has not sent any weather packets the latest 1 day(s).
| Time | Temp. | Humidity | Pressure | Rain* | Wind** | Luminosity | Snow |
|---|---|---|---|---|---|---|---|
| 1778110349 | 27.22° C | 71% | 1010.6 hPa | 0 mm | - | - | - |
| 1778108846 | 26.67° C | 70% | 1010.5 hPa | 0 mm | - | - | - |
| 1778108546 | 26.67° C | 69% | 1010.6 hPa | 0 mm | - | - | - |
| 1778107641 | 27.22° C | 67% | 1010.5 hPa | 0 mm | - | - | - |
| 1778107340 | 27.78° C | 68% | 1010.5 hPa | 0 mm | - | - | - |
| 1778105536 | 27.78° C | 68% | 1010.2 hPa | 0 mm | - | - | - |
| 1778104632 | 27.22° C | 73% | 1010.2 hPa | 0 mm | - | - | - |
| 1778103124 | 28.33° C | 73% | 1010.1 hPa | 0 mm | - | - | - |
| 1778102824 | 28.89° C | 73% | 1010.2 hPa | 0 mm | - | - | - |
| 1778101318 | 27.78° C | 77% | 1010 hPa | 0 mm | - | - | - |
| 1778099515 | 27.22° C | 79% | 1010.2 hPa | 0 mm | - | - | - |
| 1778098614 | 26.67° C | 79% | 1010.3 hPa | 0 mm | - | - | - |
| 1778097413 | 27.22° C | 78% | 1010.5 hPa | 0 mm | - | - | - |
| 1778096512 | 28.33° C | 75% | 1010.5 hPa | 0 mm | - | - | - |
| 1778095371 | 28.89° C | 75% | 1010.7 hPa | 0 mm | - | - | - |
| 1778095311 | 28.89° C | 75% | 1010.7 hPa | 0 mm | - | - | - |
| 1778094710 | 28.33° C | 77% | 1010.8 hPa | 0 mm | - | - | - |
| 1778094403 | 28.33° C | 76% | 1010.9 hPa | 0 mm | - | - | - |
| 1778091699 | 27.78° C | 77% | 1011.2 hPa | 0 mm | - | - | - |
| 1778090645 | 27.78° C | 76% | 1011.3 hPa | 0 mm | - | - | - |
| 1778089140 | 28.33° C | 76% | 1011.6 hPa | 0 mm | - | - | - |
| 1778088840 | 27.78° C | 77% | 1011.7 hPa | 0 mm | - | - | - |
| 1778088238 | 27.78° C | 78% | 1011.7 hPa | 0 mm | - | - | - |
| 1778087330 | 27.78° C | 77% | 1011.7 hPa | 0 mm | - | - | - |
| 1778086124 | 27.78° C | 77% | 1011.9 hPa | 0 mm | - | - | - |
* Rain latest hour (hover to see other rain measurements)
** Current wind speed in m/s (hover to see current wind gust speed)